Estación de San Julian
Ultimos registro cada 15 minutos 95
| N° | Estación | Fecha / Hora | Temperatura | Humedad | Lluvia | Velocidad | Dirección | Radiación | Presion |
| 95 | San Julian | 03-09-2026 23:30 | 12,5 | 81,7 | 0 | 0 | 270 | 0,6 | 988,7 |
| 94 | San Julian | 03-09-2026 23:15 | 13,1 | 80,1 | 0 | 0 | 270 | 0,6 | 988,6 |
| 93 | San Julian | 03-09-2026 23:00 | 13,2 | 79,7 | 0 | 0 | 270 | 0,6 | 988,4 |
| 92 | San Julian | 03-09-2026 22:45 | 13,3 | 79,4 | 0 | 0 | 268 | 0,6 | 988,6 |
| 91 | San Julian | 03-09-2026 22:30 | 13,3 | 79 | 0 | 0 | 268 | 0,6 | 988,6 |
| 90 | San Julian | 03-09-2026 22:15 | 13,4 | 78,8 | 0 | 0 | 256 | 0,6 | 988,5 |
| 89 | San Julian | 03-09-2026 22:00 | 13,4 | 79,9 | 0 | 0 | 253 | 0,6 | 988,7 |
| 88 | San Julian | 03-09-2026 21:45 | 13,4 | 79,4 | 0 | 0 | 253 | 0,6 | 988,8 |
| 87 | San Julian | 03-09-2026 21:30 | 13,5 | 79,3 | 0 | 0 | 253 | 0,6 | 988,7 |
| 86 | San Julian | 03-09-2026 21:15 | 13,6 | 79,6 | 0 | 0 | 243 | 0,6 | 988,6 |
| 85 | San Julian | 03-09-2026 21:00 | 13,8 | 78,7 | 0 | 0,5 | 243 | 0,6 | 988,8 |
| 84 | San Julian | 03-09-2026 20:45 | 13,8 | 78 | 0 | 0 | 244 | 0,6 | 988,6 |
| 83 | San Julian | 03-09-2026 20:30 | 14 | 77,8 | 0 | 0,5 | 241 | 0,6 | 988,2 |
| 82 | San Julian | 03-09-2026 20:15 | 14,1 | 77,3 | 0 | 1 | 244 | 0,6 | 988,2 |
| 81 | San Julian | 03-09-2026 20:00 | 14,3 | 75,6 | 0 | 1 | 243 | 0,6 | 988 |
| 80 | San Julian | 03-09-2026 19:45 | 14,4 | 75,6 | 0 | 1 | 239 | 0,6 | 987,7 |
| 79 | San Julian | 03-09-2026 19:30 | 14,4 | 77,4 | 0 | 1 | 243 | 0,6 | 987,6 |
| 78 | San Julian | 03-09-2026 19:15 | 14,8 | 74,9 | 0 | 1 | 247 | 0,6 | 987,8 |
| 77 | San Julian | 03-09-2026 19:00 | 15,3 | 72,9 | 0 | 1 | 247 | 0,6 | 987,6 |
| 76 | San Julian | 03-09-2026 18:45 | 15,7 | 72,3 | 0 | 0,5 | 244 | 0,6 | 987,4 |
| 75 | San Julian | 03-09-2026 18:30 | 16,2 | 71 | 0 | 1 | 241 | 6,9 | 987,4 |
| 74 | San Julian | 03-09-2026 18:15 | 16,8 | 69,8 | 0 | 1 | 241 | 24,4 | 987,2 |
| 73 | San Julian | 03-09-2026 18:00 | 17,8 | 65,9 | 0 | 1 | 240 | 49,4 | 986,9 |
| 72 | San Julian | 03-09-2026 17:45 | 18,2 | 65,1 | 0 | 1,5 | 240 | 71,9 | 987 |
| 71 | San Julian | 03-09-2026 17:30 | 18,8 | 63,4 | 0 | 1,5 | 239 | 99,4 | 986,9 |
| 70 | San Julian | 03-09-2026 17:15 | 19,5 | 61,9 | 0 | 1,5 | 240 | 135,6 | 986,8 |
| 69 | San Julian | 03-09-2026 17:00 | 19,6 | 63,2 | 0 | 2 | 241 | 168,1 | 986,5 |
| 68 | San Julian | 03-09-2026 16:45 | 20,2 | 62 | 0 | 1,5 | 243 | 180,6 | 986,7 |
| 67 | San Julian | 03-09-2026 16:30 | 20,9 | 60,3 | 0 | 1,5 | 239 | 168,1 | 986,6 |
| 66 | San Julian | 03-09-2026 16:15 | 21,7 | 57 | 0 | 1 | 240 | 208,1 | 986,6 |
| 65 | San Julian | 03-09-2026 16:00 | 24 | 52,4 | 0 | 0,5 | 239 | 519,4 | 986,3 |
| 64 | San Julian | 03-09-2026 15:45 | 21,8 | 56,6 | 0 | 0,5 | 241 | 285,6 | 986,7 |
| 63 | San Julian | 03-09-2026 15:30 | 22,2 | 56,2 | 0 | 0,5 | 240 | 305,6 | 986,6 |
| 62 | San Julian | 03-09-2026 15:15 | 22,9 | 55,3 | 0 | 1 | 234 | 559,4 | 986,4 |
| 61 | San Julian | 03-09-2026 15:00 | 22,9 | 54,5 | 0 | 1,5 | 240 | 348,1 | 986,9 |
| 60 | San Julian | 03-09-2026 14:45 | 22,6 | 56,3 | 0 | 2 | 234 | 294,4 | 986,6 |
| 59 | San Julian | 03-09-2026 14:30 | 22,7 | 56,4 | 0 | 1,5 | 240 | 339,4 | 986,8 |
| 58 | San Julian | 03-09-2026 14:15 | 22,7 | 55,6 | 0 | 2 | 240 | 339,4 | 986,9 |
| 57 | San Julian | 03-09-2026 14:00 | 23,2 | 55,8 | 0 | 2 | 239 | 565,6 | 987 |
| 56 | San Julian | 03-09-2026 13:45 | 23,3 | 54,5 | 0 | 1,5 | 236 | 394,4 | 987,1 |
| 55 | San Julian | 03-09-2026 13:30 | 24,2 | 50,9 | 0 | 0,5 | 243 | 451,9 | 987,1 |
| 54 | San Julian | 03-09-2026 13:15 | 24,9 | 48,6 | 0 | 0,5 | 244 | 448,1 | 987,1 |
| 53 | San Julian | 03-09-2026 13:00 | 24,4 | 48,6 | 0 | 1,5 | 275 | 453,1 | 987,5 |
| 52 | San Julian | 03-09-2026 12:45 | 24,5 | 47,2 | 0 | 0,5 | 14 | 513,1 | 987,6 |
| 51 | San Julian | 03-09-2026 12:30 | 24,9 | 49,9 | 0 | 0 | 21 | 535,6 | 987,7 |
| 50 | San Julian | 03-09-2026 12:15 | 24 | 43,1 | 0 | 0 | 14 | 356,9 | 987,9 |
| 49 | San Julian | 03-09-2026 12:00 | 23,5 | 42,4 | 0 | 0 | 14 | 258,1 | 988 |
| 48 | San Julian | 03-09-2026 11:45 | 22,9 | 40,8 | 0 | 0,5 | 15 | 619,4 | 988,1 |
| 47 | San Julian | 03-09-2026 11:30 | 23,1 | 46,8 | 0 | 0 | 17 | 666,9 | 988,2 |
| 46 | San Julian | 03-09-2026 11:15 | 23,6 | 47,5 | 0 | 0 | 20 | 450,6 | 988,4 |
| 45 | San Julian | 03-09-2026 11:00 | 21,9 | 56,1 | 0 | 0 | 28 | 634,4 | 988,5 |
| 44 | San Julian | 03-09-2026 10:45 | 21,3 | 54,6 | 0 | 0 | 20 | 528,1 | 988,5 |
| 43 | San Julian | 03-09-2026 10:30 | 21,3 | 57,6 | 0 | 0 | 17 | 651,9 | 988,4 |
| 42 | San Julian | 03-09-2026 10:15 | 19,6 | 63,2 | 0 | 0,5 | 18 | 581,9 | 988,5 |
| 41 | San Julian | 03-09-2026 10:00 | 19,2 | 65,8 | 0 | 0,5 | 20 | 541,9 | 988,6 |
| 40 | San Julian | 03-09-2026 09:45 | 18,7 | 66,2 | 0 | 0,5 | 34 | 496,9 | 988,7 |
| 39 | San Julian | 03-09-2026 09:30 | 18,7 | 63,7 | 0 | 0,5 | 41 | 453,1 | 988,8 |
| 38 | San Julian | 03-09-2026 09:15 | 17,4 | 68,4 | 0 | 0,5 | 31 | 405,6 | 988,5 |
| 37 | San Julian | 03-09-2026 09:00 | 17 | 70,9 | 0 | 0,5 | 37 | 356,9 | 988,7 |
| 36 | San Julian | 03-09-2026 08:45 | 16,6 | 74,9 | 0 | 0,5 | 58 | 310,6 | 988,4 |
| 35 | San Julian | 03-09-2026 08:30 | 15,5 | 78,6 | 0 | 0,5 | 53 | 313,1 | 988,4 |
| 34 | San Julian | 03-09-2026 08:15 | 13,9 | 82,1 | 0 | 0,5 | 48 | 218,1 | 988,4 |
| 33 | San Julian | 03-09-2026 08:00 | 13,4 | 85,6 | 0 | 0,5 | 69 | 85,6 | 988,4 |
| 32 | San Julian | 03-09-2026 07:45 | 13 | 84,9 | 0 | 0,5 | 46 | 79,4 | 988,3 |
| 31 | San Julian | 03-09-2026 07:30 | 12,5 | 87,7 | 0 | 0,5 | 52 | 13,1 | 988 |
| 30 | San Julian | 03-09-2026 07:15 | 12,1 | 90,2 | 0 | 0,5 | 72 | 5,6 | 988,1 |
| 29 | San Julian | 03-09-2026 07:00 | 11,4 | 93,7 | 0 | 0,5 | 72 | 1,9 | 987,8 |
| 28 | San Julian | 03-09-2026 06:45 | 11,9 | 94,6 | 0 | 0,5 | 44 | 0,6 | 987,7 |
| 27 | San Julian | 03-09-2026 06:30 | 11,9 | 96,6 | 0 | 0,5 | 86 | 0,6 | 987,6 |
| 26 | San Julian | 03-09-2026 06:15 | 11,1 | 98,7 | 0 | 0 | 183 | 0,6 | 987,6 |
| 25 | San Julian | 03-09-2026 06:00 | 10,7 | 98,2 | 0 | 0 | 187 | 0,6 | 987,5 |
| 24 | San Julian | 03-09-2026 05:45 | 11,2 | 99,5 | 0 | 0 | 216 | 0,6 | 987,4 |
| 23 | San Julian | 03-09-2026 05:30 | 9,8 | 99 | 0 | 0 | 220 | 0,6 | 987,5 |
| 22 | San Julian | 03-09-2026 05:15 | 9,9 | 98,7 | 0 | 0 | 222 | 0,6 | 987,4 |
| 21 | San Julian | 03-09-2026 05:00 | 9,8 | 98,9 | 0 | 0 | 222 | 0,6 | 987,5 |
| 20 | San Julian | 03-09-2026 04:45 | 9,9 | 98,4 | 0 | 0 | 222 | 0,6 | 987,5 |
| 19 | San Julian | 03-09-2026 04:30 | 10,6 | 98,5 | 0 | 0 | 222 | 0,6 | 987,3 |
| 18 | San Julian | 03-09-2026 04:15 | 10 | 98,3 | 0 | 0 | 223 | 0,6 | 987,5 |
| 17 | San Julian | 03-09-2026 04:00 | 9,9 | 98,4 | 0 | 0 | 223 | 0,6 | 987,7 |
| 16 | San Julian | 03-09-2026 03:45 | 10,1 | 98 | 0 | 0 | 223 | 0,6 | 987,7 |
| 15 | San Julian | 03-09-2026 03:30 | 9,4 | 97,8 | 0 | 0 | 223 | 0,6 | 987,9 |
| 14 | San Julian | 03-09-2026 03:15 | 10,9 | 97,9 | 0 | 0 | 223 | 0,6 | 987,9 |
| 13 | San Julian | 03-09-2026 03:00 | 10,5 | 97,8 | 0 | 0 | 223 | 0,6 | 987,8 |
| 12 | San Julian | 03-09-2026 02:45 | 10,3 | 97,9 | 0 | 0 | 223 | 0,6 | 987,9 |
| 11 | San Julian | 03-09-2026 02:30 | 10,5 | 97,4 | 0 | 0 | 223 | 0,6 | 987,9 |
| 10 | San Julian | 03-09-2026 02:15 | 10,7 | 97,2 | 0 | 0 | 223 | 0,6 | 988 |
| 9 | San Julian | 03-09-2026 02:00 | 10,9 | 97,3 | 0 | 0 | 226 | 0,6 | 987,9 |
| 8 | San Julian | 03-09-2026 01:45 | 11 | 97,2 | 0 | 0 | 256 | 0,6 | 988 |
| 7 | San Julian | 03-09-2026 01:30 | 10,5 | 96,7 | 0 | 0 | 258 | 0,6 | 988 |
| 6 | San Julian | 03-09-2026 01:15 | 10,5 | 96,5 | 0 | 0 | 258 | 0,6 | 988,2 |
| 5 | San Julian | 03-09-2026 01:00 | 10,9 | 96,3 | 0 | 0 | 258 | 0,6 | 988,3 |
| 4 | San Julian | 03-09-2026 00:45 | 10,7 | 96,4 | 0 | 0 | 258 | 0,6 | 988,3 |
| 3 | San Julian | 03-09-2026 00:30 | 10,6 | 95,7 | 0 | 0 | 258 | 0,6 | 988,2 |
| 2 | San Julian | 03-09-2026 00:15 | 10,8 | 95,5 | 0 | 0 | 258 | 0,6 | 988,2 |
| 1 | San Julian | 03-09-2026 00:00 | 11,3 | 95,2 | 0 | 0 | 258 | 0,6 | 988,2 |